CheckWX is a tool to help pilots better visualize weather data.  It is not intended as a substitute for an official pre-flight weather briefing.

09:40:46 UTC

KGLH TAF
Greenville Mid-Delta Airport
Greenville, Mississippi, USA
KGLH 260708Z 2607/2706 VRB05KT P6SM VCSH BKN035 FM261500 33014G25KT P6SM BKN020 FM262000 32014KT P6SM BKN035 FM262300 32013G24KT P6SM SCT045

Feb-26@
07:00 UTC

Feb-26 @ 07:00 UTC

Feb-26@
15:00 UTC

Feb-26 @ 15:00 UTC

KGLH 260708Z 2607/2706 VRB05KT P6SM VCSH BKN035
Wind
  • Variable at 5 KTS
Cloud Levels
  • Broken at 3,500' AGL

Feb-26@
15:00 UTC

Feb-26 @ 15:00 UTC

Feb-26@
20:00 UTC

Feb-26 @ 20:00 UTC

FM261500 33014G25KT P6SM BKN020

From

From Standard forecast or significant change

Wind
  • 330° at 14 KTS
  • {Gusting to 25 KTS
Cloud Levels
  • Broken at 2,000' AGL

Feb-26@
20:00 UTC

Feb-26 @ 20:00 UTC

Feb-26@
23:00 UTC

Feb-26 @ 23:00 UTC

FM262000 32014KT P6SM BKN035

From

From Standard forecast or significant change

Wind
  • 320° at 14 KTS
Cloud Levels
  • Broken at 3,500' AGL

Feb-26@
23:00 UTC

Feb-26 @ 23:00 UTC

Feb-27@
06:00 UTC

Feb-27 @ 06:00 UTC

FM262300 32013G24KT P6SM SCT045

From

From Standard forecast or significant change

Wind
  • 320° at 13 KTS
  • {Gusting to 24 KTS
Cloud Levels
  • Scattered at 4,500' AGL